createdAt,value
2023-05-18T00:00:28.115Z,82.80
2023-05-18T00:02:55.368Z,84.71
2023-05-18T00:05:24.273Z,82.14
2023-05-18T00:07:54.094Z,85.29
2023-05-18T00:10:21.064Z,85.67
2023-05-18T00:12:48.212Z,85.69
2023-05-18T00:15:15.314Z,86.49
2023-05-18T00:17:47.247Z,86.52
2023-05-18T00:20:15.357Z,87.35
2023-05-18T00:22:45.606Z,87.63
2023-05-18T00:25:32.221Z,86.65
2023-05-18T00:28:00.752Z,89.90
2023-05-18T00:30:27.747Z,89.11
2023-05-18T00:32:59.621Z,89.80
2023-05-18T00:35:27.104Z,87.28
2023-05-18T00:37:57.216Z,86.19
2023-05-18T00:40:26.594Z,89.38
2023-05-18T00:42:55.272Z,91.05
2023-05-18T00:45:22.362Z,92.10
2023-05-18T00:47:52.061Z,89.60
2023-05-18T00:50:19.332Z,91.18
2023-05-18T00:52:47.800Z,88.85
2023-05-18T00:55:14.697Z,92.38
2023-05-18T00:57:45.584Z,90.78
2023-05-18T01:00:14.317Z,90.83
2023-05-18T01:02:54.495Z,91.68
2023-05-18T01:05:22.504Z,92.52
2023-05-18T01:07:59.103Z,91.17
2023-05-18T01:10:28.481Z,90.64
2023-05-18T01:12:58.530Z,92.31
2023-05-18T01:15:33.034Z,92.66
2023-05-18T01:18:33.992Z,93.02
2023-05-18T01:21:25.695Z,93.31
2023-05-18T01:24:11.752Z,92.91
2023-05-18T01:26:40.752Z,94.03
2023-05-18T01:29:10.020Z,92.62
2023-05-18T01:31:37.146Z,93.40
2023-05-18T01:34:04.031Z,93.00
2023-05-18T01:36:31.756Z,90.87
2023-05-18T01:39:01.706Z,93.94
2023-05-18T01:41:30.770Z,94.51
2023-05-18T01:44:08.956Z,94.21
2023-05-18T01:46:51.234Z,94.99
2023-05-18T01:49:29.751Z,94.66
2023-05-18T01:51:58.788Z,95.10
2023-05-18T01:54:27.189Z,95.10
2023-05-18T01:56:56.468Z,96.15
2023-05-18T01:59:24.196Z,96.85
2023-05-18T02:01:51.583Z,95.99
2023-05-18T02:04:27.633Z,96.26
2023-05-18T02:06:55.322Z,96.41
2023-05-18T02:09:22.616Z,98.37
2023-05-18T02:11:50.779Z,98.95
2023-05-18T02:14:17.677Z,98.66
2023-05-18T02:16:47.592Z,98.90
2023-05-18T02:19:15.040Z,98.06
2023-05-18T02:21:43.762Z,98.67
2023-05-18T02:24:11.997Z,98.33
2023-05-18T02:26:39.378Z,98.40
2023-05-18T02:29:11.907Z,98.64
2023-05-18T02:31:39.055Z,99.10
2023-05-18T02:34:06.827Z,98.42
2023-05-18T02:36:40.468Z,98.83
2023-05-18T02:39:19.728Z,98.55
2023-05-18T02:41:46.643Z,98.72
2023-05-18T02:44:13.545Z,100.00
2023-05-18T02:46:40.468Z,99.34
2023-05-18T02:49:12.820Z,100.00
2023-05-18T02:51:40.328Z,99.20
2023-05-18T02:54:07.635Z,98.73
2023-05-18T02:56:38.538Z,99.69
2023-05-18T02:59:15.310Z,100.00
2023-05-18T03:01:43.623Z,100.00
2023-05-18T03:04:10.885Z,100.00
2023-05-18T03:06:46.692Z,100.00
2023-05-18T03:09:16.264Z,100.00
2023-05-18T03:11:44.898Z,100.00
2023-05-18T03:14:12.113Z,100.00
2023-05-18T03:16:39.982Z,100.00
2023-05-18T03:19:14.621Z,100.00
2023-05-18T03:21:42.926Z,100.00
2023-05-18T03:24:10.192Z,100.00
2023-05-18T03:26:41.961Z,100.00
2023-05-18T03:29:09.554Z,100.00
2023-05-18T03:31:36.673Z,100.00
2023-05-18T03:34:03.614Z,100.00
2023-05-18T03:36:30.345Z,100.00
2023-05-18T03:38:57.216Z,100.00
2023-05-18T03:41:24.611Z,100.00
2023-05-18T03:43:53.690Z,100.00
2023-05-18T03:46:22.009Z,100.00
2023-05-18T03:48:49.156Z,100.00
2023-05-18T03:51:20.831Z,100.00
2023-05-18T03:53:48.556Z,100.00
2023-05-18T03:56:15.930Z,100.00
2023-05-18T03:58:44.506Z,100.00
2023-05-18T04:01:11.450Z,100.00
2023-05-18T04:03:38.402Z,100.00
2023-05-18T04:06:06.491Z,100.00
2023-05-18T04:08:34.525Z,100.00
2023-05-18T04:11:01.659Z,100.00
2023-05-18T04:13:28.682Z,100.00
2023-05-18T04:15:57.999Z,100.00
2023-05-18T04:18:30.485Z,100.00
2023-05-18T04:20:57.424Z,100.00
2023-05-18T04:23:24.368Z,100.00
2023-05-18T04:25:51.731Z,100.00
2023-05-18T04:28:19.380Z,100.00
2023-05-18T04:30:47.697Z,100.00
2023-05-18T04:33:16.477Z,100.00
2023-05-18T04:35:44.954Z,100.00
2023-05-18T04:38:12.263Z,100.00
2023-05-18T04:40:42.648Z,100.00
2023-05-18T04:43:10.896Z,100.00
2023-05-18T04:45:38.917Z,100.00
2023-05-18T04:48:06.831Z,100.00
2023-05-18T04:50:33.965Z,100.00
2023-05-18T04:53:02.482Z,100.00
2023-05-18T04:55:31.373Z,100.00
2023-05-18T04:58:03.482Z,100.00
2023-05-18T05:00:30.997Z,100.00
2023-05-18T05:02:58.608Z,100.00
2023-05-18T05:05:27.577Z,100.00
2023-05-18T05:07:56.295Z,100.00
2023-05-18T05:10:24.329Z,100.00
2023-05-18T05:12:51.734Z,100.00
2023-05-18T05:15:19.825Z,100.00
2023-05-18T05:17:49.947Z,99.64
2023-05-18T05:20:17.599Z,100.00
2023-05-18T05:22:44.906Z,100.00
2023-05-18T05:25:14.508Z,100.00
2023-05-18T05:27:41.469Z,100.00
2023-05-18T05:30:08.825Z,99.75
2023-05-18T05:32:37.343Z,100.00
2023-05-18T05:35:06.209Z,98.79
2023-05-18T05:37:35.096Z,96.79
2023-05-18T05:40:02.147Z,98.45
2023-05-18T05:42:32.753Z,97.21
2023-05-18T05:44:59.732Z,94.35
2023-05-18T05:47:27.689Z,93.16
2023-05-18T05:49:55.752Z,89.40
2023-05-18T05:52:22.805Z,86.88
2023-05-18T05:54:50.792Z,84.73
2023-05-18T05:57:17.652Z,83.09
2023-05-18T05:59:44.763Z,76.31
2023-05-18T06:02:12.392Z,67.42
2023-05-18T06:04:40.710Z,60.21
2023-05-18T06:07:07.546Z,54.60
2023-05-18T06:09:34.408Z,51.94
2023-05-18T06:12:01.242Z,48.68
2023-05-18T06:14:28.700Z,45.90
2023-05-18T06:16:57.449Z,46.71
2023-05-18T06:19:24.664Z,48.34
2023-05-18T06:21:52.746Z,48.26
2023-05-18T06:24:19.752Z,46.84
2023-05-18T06:27:06.784Z,47.78
2023-05-18T06:29:42.808Z,47.62
2023-05-18T06:32:28.211Z,50.04
2023-05-18T06:34:56.604Z,53.00
2023-05-18T06:37:23.654Z,54.24
2023-05-18T06:39:50.468Z,55.59
2023-05-18T06:42:26.147Z,56.48
2023-05-18T06:45:03.379Z,57.93
2023-05-18T06:47:48.726Z,59.61
2023-05-18T06:50:15.857Z,58.16
2023-05-18T06:52:42.785Z,60.30
2023-05-18T06:55:09.874Z,61.54
2023-05-18T06:57:37.202Z,63.06
2023-05-18T07:00:07.376Z,62.11
2023-05-18T07:02:34.559Z,59.75
2023-05-18T07:05:01.688Z,61.54
2023-05-18T07:07:28.613Z,65.99
2023-05-18T07:09:55.488Z,64.03
2023-05-18T07:12:22.723Z,65.94
2023-05-18T07:14:49.762Z,68.38
2023-05-18T07:17:19.548Z,67.72
2023-05-18T07:19:46.643Z,62.63
2023-05-18T07:22:19.940Z,62.80
2023-05-18T07:24:47.078Z,62.22
2023-05-18T07:27:14.002Z,60.55
2023-05-18T07:29:45.725Z,63.40
2023-05-18T07:32:13.953Z,62.00
2023-05-18T07:34:42.617Z,61.61
2023-05-18T07:37:15.065Z,63.83
2023-05-18T07:39:45.697Z,60.08
2023-05-18T07:42:12.493Z,61.52
2023-05-18T07:44:39.340Z,60.45
2023-05-18T07:47:06.581Z,60.06
2023-05-18T07:49:33.406Z,59.11
2023-05-18T07:52:02.284Z,61.22
2023-05-18T07:54:29.133Z,61.60
2023-05-18T07:56:58.523Z,69.16
2023-05-18T07:59:26.683Z,68.13
2023-05-18T08:01:53.453Z,75.37
2023-05-18T08:04:20.501Z,72.70
2023-05-18T08:06:47.219Z,67.76
2023-05-18T08:09:14.256Z,67.56
2023-05-18T08:11:42.621Z,67.22
2023-05-18T08:14:09.383Z,64.17
2023-05-18T08:16:37.746Z,66.80
2023-05-18T08:19:04.785Z,67.50
2023-05-18T08:21:33.234Z,66.32
2023-05-18T08:24:00.187Z,67.99
2023-05-18T08:26:27.305Z,64.79
2023-05-18T08:28:54.312Z,66.17
2023-05-18T08:31:21.452Z,67.64
2023-05-18T08:33:48.933Z,68.22
2023-05-18T08:36:17.017Z,66.65
2023-05-18T08:38:44.081Z,65.28
2023-05-18T08:41:31.381Z,69.20
2023-05-18T08:44:16.265Z,73.68
2023-05-18T08:46:51.118Z,74.01
2023-05-18T08:49:20.438Z,73.45
2023-05-18T08:51:58.391Z,74.33
2023-05-18T08:54:25.582Z,73.91
2023-05-18T08:56:55.865Z,72.25
2023-05-18T08:59:28.141Z,71.21
2023-05-18T09:01:55.592Z,71.75
2023-05-18T09:04:24.991Z,71.55
2023-05-18T09:06:54.591Z,72.32
2023-05-18T09:09:22.516Z,71.22
2023-05-18T09:11:50.296Z,69.62
2023-05-18T09:14:19.778Z,66.83
2023-05-18T09:16:46.580Z,71.33
2023-05-18T09:19:13.507Z,68.64
2023-05-18T09:21:40.925Z,67.87
2023-05-18T09:24:08.019Z,67.96
2023-05-18T09:26:34.866Z,66.68
2023-05-18T09:29:11.369Z,70.10
2023-05-18T09:31:38.359Z,66.23
2023-05-18T09:34:06.591Z,63.21
2023-05-18T09:36:34.629Z,61.84
2023-05-18T09:39:07.737Z,63.90
2023-05-18T09:41:34.775Z,65.14
2023-05-18T09:44:05.204Z,63.51
2023-05-18T09:46:32.717Z,52.46
2023-05-18T09:48:59.838Z,50.83
2023-05-18T09:51:27.003Z,48.95
2023-05-18T09:53:56.247Z,48.73
2023-05-18T09:56:24.590Z,46.90
2023-05-18T09:58:51.706Z,46.28
2023-05-18T10:01:19.242Z,46.92
2023-05-18T10:03:48.485Z,47.82
2023-05-18T10:06:17.745Z,48.06
2023-05-18T10:08:47.536Z,47.03
2023-05-18T10:11:18.000Z,47.69
2023-05-18T10:13:47.191Z,48.24
2023-05-18T10:16:16.039Z,49.53
2023-05-18T10:18:43.017Z,48.36
2023-05-18T10:21:12.548Z,49.56
2023-05-18T10:23:40.843Z,49.04
2023-05-18T10:26:10.069Z,48.23
2023-05-18T10:28:39.166Z,48.46
2023-05-18T10:31:07.014Z,45.98
2023-05-18T10:33:39.334Z,46.76
2023-05-18T10:36:07.637Z,45.24
2023-05-18T10:38:38.844Z,45.69
2023-05-18T10:41:06.174Z,45.55
2023-05-18T10:43:33.780Z,46.09
2023-05-18T10:46:01.589Z,45.54
2023-05-18T10:48:29.704Z,45.91
2023-05-18T10:50:57.911Z,47.00
2023-05-18T10:53:30.018Z,47.49
2023-05-18T10:55:56.827Z,46.24
2023-05-18T10:58:28.052Z,46.83
2023-05-18T11:01:03.221Z,47.00
2023-05-18T11:03:33.267Z,45.20
2023-05-18T11:06:08.813Z,46.14
2023-05-18T11:08:49.882Z,45.52
2023-05-18T11:11:19.357Z,46.44
2023-05-18T11:13:51.339Z,46.09
2023-05-18T11:16:19.912Z,45.68
2023-05-18T11:18:49.952Z,45.98
2023-05-18T11:21:29.117Z,44.42
2023-05-18T11:24:24.948Z,44.68
2023-05-18T11:26:55.767Z,45.12
2023-05-18T11:29:35.629Z,44.34
2023-05-18T11:32:02.858Z,45.69
2023-05-18T11:34:45.434Z,44.73
2023-05-18T11:37:32.060Z,44.33
2023-05-18T11:40:01.618Z,44.91
2023-05-18T11:42:36.160Z,44.22
2023-05-18T11:45:10.204Z,43.76
2023-05-18T11:47:39.948Z,42.15
2023-05-18T11:50:08.808Z,43.31
2023-05-18T11:52:49.342Z,43.57
2023-05-18T11:55:17.421Z,44.37
2023-05-18T11:57:47.470Z,44.50
2023-05-18T12:00:16.193Z,44.74
2023-05-18T12:02:45.471Z,45.15
2023-05-18T12:05:13.203Z,45.47
2023-05-18T12:07:40.797Z,44.43
2023-05-18T12:10:09.034Z,45.48
2023-05-18T12:12:36.325Z,44.91
2023-05-18T12:15:05.621Z,45.24
2023-05-18T12:17:42.279Z,45.50
2023-05-18T12:20:13.515Z,45.69
2023-05-18T12:22:41.898Z,45.18
2023-05-18T12:25:09.848Z,44.39
2023-05-18T12:27:41.088Z,45.23
2023-05-18T12:30:18.020Z,44.45
2023-05-18T12:32:47.207Z,44.66
2023-05-18T12:35:14.192Z,44.86
2023-05-18T12:37:45.950Z,45.36
2023-05-18T12:40:15.147Z,43.95
2023-05-18T12:43:03.399Z,44.23
2023-05-18T12:45:34.721Z,44.34
2023-05-18T12:48:12.143Z,44.96
2023-05-18T12:50:49.413Z,44.62
2023-05-18T12:53:17.284Z,44.88
2023-05-18T12:55:44.409Z,44.41
2023-05-18T12:58:19.365Z,45.07
2023-05-18T13:00:48.793Z,44.74
2023-05-18T13:03:23.077Z,43.27
2023-05-18T13:06:04.703Z,44.23
2023-05-18T13:08:36.287Z,43.82
2023-05-18T13:11:13.820Z,44.44
2023-05-18T13:14:01.923Z,44.81
2023-05-18T13:16:30.537Z,44.75
2023-05-18T13:19:02.538Z,45.32
2023-05-18T13:21:29.880Z,45.10
2023-05-18T13:23:56.789Z,45.10
2023-05-18T13:26:24.681Z,45.15
2023-05-18T13:28:54.565Z,44.93
2023-05-18T13:31:22.441Z,44.72
2023-05-18T13:33:50.172Z,44.93
2023-05-18T13:36:17.760Z,45.14
2023-05-18T13:38:44.875Z,44.90
2023-05-18T13:41:12.607Z,44.42
2023-05-18T13:43:39.679Z,46.74
2023-05-18T13:46:06.693Z,46.76
2023-05-18T13:48:33.682Z,46.37
2023-05-18T13:51:01.183Z,46.55
2023-05-18T13:53:28.158Z,44.23
2023-05-18T13:55:58.191Z,44.49
2023-05-18T13:58:25.144Z,45.58
2023-05-18T14:00:54.039Z,45.97
2023-05-18T14:03:21.034Z,45.40
2023-05-18T14:05:47.890Z,45.67
2023-05-18T14:08:14.879Z,44.87
2023-05-18T14:10:42.231Z,45.58
2023-05-18T14:13:09.394Z,44.66
2023-05-18T14:15:36.596Z,45.20
2023-05-18T14:18:06.746Z,44.57
2023-05-18T14:20:35.213Z,43.23
2023-05-18T14:23:04.430Z,43.90
2023-05-18T14:25:31.883Z,44.53
2023-05-18T14:27:59.369Z,43.82
2023-05-18T14:30:26.698Z,43.46
2023-05-18T14:32:56.287Z,43.85
2023-05-18T14:35:23.228Z,43.22
2023-05-18T14:37:50.006Z,43.40
2023-05-18T14:40:17.311Z,44.29
2023-05-18T14:42:44.388Z,43.19
2023-05-18T14:45:11.363Z,43.49
2023-05-18T14:47:38.219Z,43.94
2023-05-18T14:50:05.679Z,44.29
2023-05-18T14:52:32.535Z,43.85
2023-05-18T14:54:59.406Z,44.60
2023-05-18T14:57:26.904Z,44.85
2023-05-18T14:59:54.067Z,45.50
2023-05-18T15:02:20.948Z,45.64
2023-05-18T15:04:47.810Z,45.28
2023-05-18T15:07:14.701Z,45.77
2023-05-18T15:09:41.889Z,44.79
2023-05-18T15:12:09.266Z,44.56
2023-05-18T15:14:36.767Z,44.63
2023-05-18T15:17:03.976Z,44.28
2023-05-18T15:19:30.879Z,44.72
2023-05-18T15:21:57.836Z,43.66
2023-05-18T15:24:26.358Z,45.07
2023-05-18T15:26:53.231Z,44.61
2023-05-18T15:29:20.751Z,44.77
2023-05-18T15:31:51.397Z,44.74
2023-05-18T15:34:19.657Z,43.68
2023-05-18T15:36:47.273Z,43.31
2023-05-18T15:39:14.609Z,43.87
2023-05-18T15:41:41.455Z,42.74
2023-05-18T15:44:08.339Z,43.18
2023-05-18T15:46:36.040Z,43.49
2023-05-18T15:49:02.996Z,43.21
2023-05-18T15:51:31.065Z,43.91
2023-05-18T15:53:58.307Z,43.59
2023-05-18T15:56:25.992Z,43.40
2023-05-18T15:58:53.121Z,43.16
2023-05-18T16:01:19.976Z,42.85
2023-05-18T16:03:47.318Z,43.36
2023-05-18T16:06:14.188Z,43.50
2023-05-18T16:08:41.307Z,43.36
2023-05-18T16:11:08.315Z,43.98
2023-05-18T16:13:35.297Z,43.74
2023-05-18T16:16:03.770Z,43.76
2023-05-18T16:18:30.629Z,44.59
2023-05-18T16:20:57.558Z,44.75
2023-05-18T16:23:24.902Z,44.84
2023-05-18T16:25:51.873Z,44.90
2023-05-18T16:28:19.086Z,44.66
2023-05-18T16:30:46.819Z,45.02
2023-05-18T16:33:14.255Z,44.61
2023-05-18T16:35:41.250Z,44.77
2023-05-18T16:38:08.139Z,44.08
2023-05-18T16:40:35.577Z,44.65
2023-05-18T16:43:02.532Z,45.48
2023-05-18T16:45:31.036Z,45.70
2023-05-18T16:48:08.179Z,44.25
2023-05-18T16:50:35.846Z,43.85
2023-05-18T16:53:03.386Z,44.27
2023-05-18T16:55:31.705Z,44.11
2023-05-18T16:57:58.556Z,44.61
2023-05-18T17:00:25.801Z,44.21
2023-05-18T17:02:52.871Z,45.02
2023-05-18T17:05:23.400Z,44.52
2023-05-18T17:07:53.701Z,44.81
2023-05-18T17:10:20.596Z,44.92
2023-05-18T17:12:48.269Z,44.82
2023-05-18T17:15:18.379Z,44.45
2023-05-18T17:17:45.801Z,44.03
2023-05-18T17:20:13.211Z,43.67
2023-05-18T17:22:40.262Z,43.39
2023-05-18T17:25:08.181Z,43.25
2023-05-18T17:27:35.168Z,43.95
2023-05-18T17:30:02.661Z,43.92
2023-05-18T17:32:30.218Z,43.89
2023-05-18T17:34:57.141Z,44.17
2023-05-18T17:37:24.157Z,44.70
2023-05-18T17:39:51.061Z,45.11
2023-05-18T17:42:18.170Z,44.58
2023-05-18T17:44:47.644Z,44.56
2023-05-18T17:47:14.699Z,44.92
2023-05-18T17:49:42.008Z,44.98
2023-05-18T17:52:09.005Z,45.60
2023-05-18T17:54:36.225Z,45.42
2023-05-18T17:57:03.240Z,45.90
2023-05-18T17:59:30.104Z,45.89
2023-05-18T18:01:57.382Z,46.45
2023-05-18T18:04:24.599Z,46.03
2023-05-18T18:06:54.708Z,45.36
2023-05-18T18:09:22.531Z,46.10
2023-05-18T18:11:49.489Z,45.86
2023-05-18T18:14:17.411Z,45.91
2023-05-18T18:16:48.304Z,46.05
2023-05-18T18:19:15.448Z,46.54
2023-05-18T18:21:42.366Z,46.59
2023-05-18T18:24:09.330Z,46.54
2023-05-18T18:26:41.158Z,46.94
2023-05-18T18:29:07.956Z,46.38
2023-05-18T18:31:38.276Z,45.88
2023-05-18T18:34:05.403Z,46.54
2023-05-18T18:36:32.402Z,46.70
2023-05-18T18:38:59.372Z,47.21
2023-05-18T18:41:26.303Z,46.99
2023-05-18T18:43:56.061Z,46.83
2023-05-18T18:46:22.847Z,46.33
2023-05-18T18:48:49.925Z,47.30
2023-05-18T18:51:16.798Z,46.73
2023-05-18T18:53:43.565Z,46.54
2023-05-18T18:56:11.170Z,46.27
2023-05-18T18:58:38.040Z,46.20
2023-05-18T19:01:04.903Z,46.80
2023-05-18T19:03:33.055Z,46.48
2023-05-18T19:06:00.229Z,46.88
2023-05-18T19:08:27.287Z,46.55
2023-05-18T19:10:55.037Z,47.46
2023-05-18T19:13:22.394Z,47.31
2023-05-18T19:15:49.444Z,47.10
2023-05-18T19:18:16.337Z,48.22
2023-05-18T19:20:43.283Z,47.80
2023-05-18T19:23:10.007Z,48.11
2023-05-18T19:25:36.914Z,48.28
2023-05-18T19:28:03.868Z,48.22
2023-05-18T19:30:30.717Z,48.29
2023-05-18T19:32:57.547Z,48.86
2023-05-18T19:35:24.558Z,48.97
2023-05-18T19:37:51.702Z,48.66
2023-05-18T19:40:18.579Z,48.84
2023-05-18T19:42:45.351Z,49.56
2023-05-18T19:45:12.235Z,49.60
2023-05-18T19:47:39.393Z,49.70
2023-05-18T19:50:07.176Z,50.00
2023-05-18T19:52:36.097Z,51.19
2023-05-18T19:55:03.048Z,50.01
2023-05-18T19:57:30.036Z,50.89
2023-05-18T19:59:57.811Z,51.08
2023-05-18T20:02:24.903Z,50.57
2023-05-18T20:04:53.380Z,50.47
2023-05-18T20:07:20.704Z,50.95
2023-05-18T20:09:47.614Z,51.32
2023-05-18T20:12:15.399Z,51.80
2023-05-18T20:14:43.508Z,52.06
2023-05-18T20:17:10.406Z,51.50
2023-05-18T20:19:37.890Z,52.48
2023-05-18T20:22:05.253Z,51.63
2023-05-18T20:24:32.999Z,52.30
2023-05-18T20:26:59.783Z,53.33
2023-05-18T20:29:27.097Z,52.89
2023-05-18T20:31:54.831Z,52.71
2023-05-18T20:34:21.976Z,53.03
2023-05-18T20:36:49.092Z,53.00
2023-05-18T20:39:16.327Z,53.88
2023-05-18T20:41:43.100Z,54.29
2023-05-18T20:44:11.559Z,54.55
2023-05-18T20:46:42.507Z,53.67
2023-05-18T20:49:13.729Z,55.22
2023-05-18T20:51:41.136Z,54.98
2023-05-18T20:54:10.874Z,55.73
2023-05-18T20:56:38.158Z,55.59
2023-05-18T20:59:06.495Z,56.58
2023-05-18T21:01:39.255Z,57.94
2023-05-18T21:04:07.226Z,60.29
2023-05-18T21:06:41.180Z,60.19
2023-05-18T21:09:08.232Z,59.16
2023-05-18T21:11:35.330Z,57.82
2023-05-18T21:14:02.298Z,57.98
2023-05-18T21:16:31.711Z,58.40
2023-05-18T21:19:01.673Z,57.77
2023-05-18T21:21:35.828Z,60.52
2023-05-18T21:24:05.352Z,61.08
2023-05-18T21:26:38.467Z,59.30
2023-05-18T21:29:09.980Z,58.21
2023-05-18T21:31:37.081Z,58.52
2023-05-18T21:34:03.919Z,58.82
2023-05-18T21:36:36.899Z,59.43
2023-05-18T21:39:09.943Z,59.35
2023-05-18T21:41:40.271Z,60.05
2023-05-18T21:44:07.339Z,61.75
2023-05-18T21:46:35.519Z,61.67
2023-05-18T21:49:06.925Z,59.95
2023-05-18T21:51:45.428Z,60.53
2023-05-18T21:54:13.826Z,61.38
2023-05-18T21:56:42.468Z,61.83
2023-05-18T21:59:11.690Z,61.51
2023-05-18T22:01:38.631Z,60.84
2023-05-18T22:04:05.560Z,59.85
2023-05-18T22:06:34.435Z,63.58
2023-05-18T22:09:01.348Z,64.92
2023-05-18T22:11:37.336Z,66.25
2023-05-18T22:14:05.160Z,66.44
2023-05-18T22:16:31.985Z,64.62
2023-05-18T22:18:58.871Z,65.12
2023-05-18T22:21:28.372Z,64.03
2023-05-18T22:23:55.565Z,65.99
2023-05-18T22:26:22.550Z,62.33
2023-05-18T22:28:55.795Z,66.33
2023-05-18T22:31:22.715Z,66.17
2023-05-18T22:33:53.234Z,67.11
2023-05-18T22:36:21.977Z,66.88
2023-05-18T22:38:49.832Z,65.14
2023-05-18T22:41:17.581Z,67.61
2023-05-18T22:43:47.753Z,66.03
2023-05-18T22:46:14.880Z,67.04
2023-05-18T22:48:41.914Z,66.32
2023-05-18T22:51:09.169Z,67.69
2023-05-18T22:53:36.410Z,67.65
2023-05-18T22:56:03.770Z,68.89
2023-05-18T22:58:34.146Z,71.00
2023-05-18T23:01:02.333Z,71.99
2023-05-18T23:03:29.128Z,73.46
2023-05-18T23:05:57.168Z,75.71
2023-05-18T23:08:24.260Z,74.92
2023-05-18T23:10:51.155Z,75.41
2023-05-18T23:13:19.749Z,73.72
2023-05-18T23:15:47.903Z,74.49
2023-05-18T23:18:15.490Z,74.34
2023-05-18T23:20:42.420Z,76.08
2023-05-18T23:23:09.349Z,76.28
2023-05-18T23:25:36.295Z,74.85
2023-05-18T23:28:03.317Z,75.80
2023-05-18T23:30:32.501Z,75.92
2023-05-18T23:33:00.980Z,75.62
2023-05-18T23:35:28.310Z,77.39
2023-05-18T23:37:57.057Z,75.47
2023-05-18T23:40:25.051Z,76.81
2023-05-18T23:42:52.307Z,77.89
2023-05-18T23:45:19.842Z,75.20
2023-05-18T23:47:47.228Z,77.00
2023-05-18T23:50:14.595Z,76.40
2023-05-18T23:52:42.334Z,72.88
2023-05-18T23:55:11.090Z,76.03
2023-05-18T23:57:38.186Z,75.33
